Time;durP1;ratioP1;P1;durP2;ratioP2;P2;SDS_P1;SDS_P2;PMS_P1;PMS_P2;Temp;Humidity;BMP_temperature;BMP_pressure;BME280_temperature;BME280_humidity;BME280_pressure;Samples;Min_cycle;Max_cycle;Signal;HPM_P1;HPM_P2
2022/04/27 00:00:34;;;;;;;7.80;4.90;;;;;;;;;;5032535;28;20488;-62
2022/04/27 00:03:01;;;;;;;8.43;5.88;;;;;;;;;;5032585;28;20049;-62
2022/04/27 00:05:28;;;;;;;9.00;5.20;;;;;;;;;;5031777;28;20471;-62
2022/04/27 00:07:54;;;;;;;8.52;6.00;;;;;;;;;;5032021;28;20045;-62
2022/04/27 00:10:21;;;;;;;13.27;6.78;;;;;;;;;;5032351;28;20083;-62
2022/04/27 00:12:47;;;;;;;8.48;7.03;;;;;;;;;;5032361;28;20037;-62
2022/04/27 00:15:14;;;;;;;8.50;6.18;;;;;;;;;;5031785;28;20039;-62
2022/04/27 00:17:40;;;;;;;5.95;5.30;;;;;;;;;;5032252;28;20048;-62
2022/04/27 00:20:07;;;;;;;8.10;5.57;;;;;;;;;;5031901;28;20041;-62
2022/04/27 00:22:34;;;;;;;9.25;6.35;;;;;;;;;;5031496;28;20472;-61
2022/04/27 00:25:00;;;;;;;14.00;6.03;;;;;;;;;;5030834;28;20099;-61
2022/04/27 00:27:31;;;;;;;11.80;6.60;;;;;;;;;;5031843;28;20380;-61
2022/04/27 00:29:58;;;;;;;12.65;7.05;;;;;;;;;;5031391;28;20026;-61
2022/04/27 00:32:24;;;;;;;14.38;7.53;;;;;;;;;;5032051;28;20551;-61
2022/04/27 00:34:50;;;;;;;13.75;7.18;;;;;;;;;;5032015;28;20125;-61
2022/04/27 00:37:18;;;;;;;11.52;6.63;;;;;;;;;;5031329;28;20041;-62
2022/04/27 00:39:44;;;;;;;13.13;7.57;;;;;;;;;;5032019;28;20109;-61
2022/04/27 00:42:17;;;;;;;13.02;7.32;;;;;;;;;;5031745;28;20072;-61
2022/04/27 00:44:44;;;;;;;13.00;8.07;;;;;;;;;;5031092;28;20490;-62
2022/04/27 00:47:10;;;;;;;10.73;6.88;;;;;;;;;;5031904;28;20547;-62
2022/04/27 00:49:36;;;;;;;11.57;7.40;;;;;;;;;;5031665;28;20041;-61
2022/04/27 00:52:03;;;;;;;12.85;7.13;;;;;;;;;;5030835;28;20044;-61
2022/04/27 00:54:29;;;;;;;15.88;7.45;;;;;;;;;;5047033;28;20072;-61
2022/04/27 00:56:55;;;;;;;11.13;6.88;;;;;;;;;;5031625;28;20041;-61
2022/04/27 00:59:23;;;;;;;13.65;7.03;;;;;;;;;;5031046;28;20148;-62
2022/04/27 01:01:49;;;;;;;8.98;7.00;;;;;;;;;;5030487;28;20045;-62
2022/04/27 01:04:15;;;;;;;9.88;7.03;;;;;;;;;;5031609;28;20049;-62
2022/04/27 01:06:41;;;;;;;10.15;7.43;;;;;;;;;;5030445;28;20053;-62
2022/04/27 01:09:07;;;;;;;11.77;7.38;;;;;;;;;;5031575;28;20041;-62
2022/04/27 01:11:33;;;;;;;10.55;7.50;;;;;;;;;;5031466;28;20040;-61
2022/04/27 01:14:00;;;;;;;21.35;8.15;;;;;;;;;;5031033;28;20077;-61
2022/04/27 01:16:26;;;;;;;11.15;7.32;;;;;;;;;;5031459;28;20045;-62
2022/04/27 01:18:52;;;;;;;12.20;8.00;;;;;;;;;;5031050;28;20205;-62
2022/04/27 01:21:18;;;;;;;13.80;7.40;;;;;;;;;;5030764;28;20096;-62
2022/04/27 01:23:44;;;;;;;13.25;8.13;;;;;;;;;;5031501;28;20049;-61
2022/04/27 01:26:10;;;;;;;13.57;7.32;;;;;;;;;;5031220;28;20732;-62
2022/04/27 01:28:37;;;;;;;12.07;7.97;;;;;;;;;;5030739;28;20127;-62
2022/04/27 01:31:05;;;;;;;10.75;7.18;;;;;;;;;;5031294;28;20044;-62
2022/04/27 01:33:34;;;;;;;15.35;7.60;;;;;;;;;;5031085;28;20130;-62
2022/04/27 01:36:00;;;;;;;13.18;8.00;;;;;;;;;;5030723;28;20389;-62
2022/04/27 01:38:27;;;;;;;11.38;7.88;;;;;;;;;;5035091;28;20045;-61
2022/04/27 01:40:54;;;;;;;12.00;8.60;;;;;;;;;;5035360;28;20045;-61
2022/04/27 01:43:24;;;;;;;11.93;7.80;;;;;;;;;;5034278;28;20049;-62
2022/04/27 01:45:51;;;;;;;12.43;8.20;;;;;;;;;;5035016;28;20484;-62
2022/04/27 01:48:17;;;;;;;9.32;7.63;;;;;;;;;;5034957;28;20409;-61
2022/04/27 01:50:43;;;;;;;13.70;7.95;;;;;;;;;;5034378;28;20121;-62
2022/04/27 01:55:53;;;;;;;14.13;8.18;;;;;;;;;;5034905;28;20049;-62
2022/04/27 01:58:20;;;;;;;10.50;7.65;;;;;;;;;;5034142;28;20480;-61
2022/04/27 02:00:47;;;;;;;13.05;8.00;;;;;;;;;;5034937;28;20084;-61
2022/04/27 02:03:13;;;;;;;13.60;8.82;;;;;;;;;;5034762;28;20045;-62
2022/04/27 02:05:40;;;;;;;13.90;8.32;;;;;;;;;;5033628;28;20057;-62
2022/04/27 02:08:06;;;;;;;10.88;7.50;;;;;;;;;;5034488;28;20045;-61
2022/04/27 02:10:32;;;;;;;13.52;8.18;;;;;;;;;;5032978;28;20033;-61
2022/04/27 02:12:58;;;;;;;12.55;8.10;;;;;;;;;;5033962;28;20037;-62
2022/04/27 02:15:24;;;;;;;13.15;7.97;;;;;;;;;;5034599;28;20165;-62
2022/04/27 02:17:50;;;;;;;16.02;8.20;;;;;;;;;;5034488;28;20172;-62
2022/04/27 02:20:22;;;;;;;12.10;7.78;;;;;;;;;;5033557;28;20041;-62
2022/04/27 02:22:48;;;;;;;12.00;7.73;;;;;;;;;;5034474;28;20095;-62
2022/04/27 02:25:14;;;;;;;10.70;7.53;;;;;;;;;;5033895;28;20049;-62
2022/04/27 02:27:41;;;;;;;13.05;8.05;;;;;;;;;;5033399;28;20116;-61
2022/04/27 02:30:08;;;;;;;15.13;8.45;;;;;;;;;;5049402;28;20125;-61
2022/04/27 02:32:34;;;;;;;12.48;8.10;;;;;;;;;;5033953;28;20049;-61
2022/04/27 02:35:00;;;;;;;14.02;8.38;;;;;;;;;;5033559;28;20360;-61
2022/04/27 02:37:27;;;;;;;9.82;7.43;;;;;;;;;;5032770;28;20071;-61
2022/04/27 02:39:53;;;;;;;13.57;8.15;;;;;;;;;;5034100;28;20042;-61
2022/04/27 02:42:19;;;;;;;11.48;7.82;;;;;;;;;;5033234;28;20061;-62
2022/04/27 02:44:45;;;;;;;13.30;7.97;;;;;;;;;;5033747;28;20049;-61
2022/04/27 02:47:11;;;;;;;12.35;7.85;;;;;;;;;;5032179;28;20064;-61
2022/04/27 02:52:22;;;;;;;11.93;8.18;;;;;;;;;;5033588;28;20038;-61
2022/04/27 02:54:48;;;;;;;12.02;7.72;;;;;;;;;;5033974;28;20037;-61
2022/04/27 02:57:16;;;;;;;15.60;8.43;;;;;;;;;;5033157;28;20124;-62
2022/04/27 02:59:42;;;;;;;14.00;8.23;;;;;;;;;;5032607;28;20053;-61
2022/04/27 03:02:08;;;;;;;15.20;9.32;;;;;;;;;;5033878;28;20077;-61
2022/04/27 03:04:34;;;;;;;13.20;8.50;;;;;;;;;;5032861;28;20045;-61
2022/04/27 03:07:01;;;;;;;15.18;8.73;;;;;;;;;;5033584;28;20041;-61
2022/04/27 03:09:27;;;;;;;11.80;8.20;;;;;;;;;;5033417;28;20120;-61
2022/04/27 03:11:53;;;;;;;15.23;7.85;;;;;;;;;;5032863;28;20059;-62
2022/04/27 03:14:20;;;;;;;13.88;8.32;;;;;;;;;;5033698;28;20387;-62
2022/04/27 03:16:46;;;;;;;13.90;8.18;;;;;;;;;;5033710;28;20038;-62
2022/04/27 03:19:12;;;;;;;12.45;8.00;;;;;;;;;;5032956;28;20037;-62
2022/04/27 03:21:38;;;;;;;13.20;8.57;;;;;;;;;;5032287;28;20049;-62
2022/04/27 03:24:05;;;;;;;11.93;7.85;;;;;;;;;;5033526;28;20041;-62
2022/04/27 03:26:31;;;;;;;12.10;7.78;;;;;;;;;;5032179;28;20099;-62
2022/04/27 03:28:58;;;;;;;12.35;7.88;;;;;;;;;;5032907;28;20041;-62
2022/04/27 03:31:24;;;;;;;14.40;8.40;;;;;;;;;;5033259;28;20036;-62
2022/04/27 03:33:50;;;;;;;12.00;8.60;;;;;;;;;;5032616;28;20037;-61
2022/04/27 03:36:16;;;;;;;13.02;8.48;;;;;;;;;;5033014;28;20041;-62
2022/04/27 03:38:48;;;;;;;14.77;8.10;;;;;;;;;;5032587;28;20076;-61
2022/04/27 03:41:15;;;;;;;14.30;8.60;;;;;;;;;;5032079;28;20145;-62
2022/04/27 03:43:41;;;;;;;16.20;8.68;;;;;;;;;;5032996;28;20038;-62
2022/04/27 03:46:07;;;;;;;11.73;7.80;;;;;;;;;;5032640;28;20045;-62
2022/04/27 03:48:33;;;;;;;12.15;8.23;;;;;;;;;;5032071;28;20443;-62
2022/04/27 03:50:59;;;;;;;12.80;8.45;;;;;;;;;;5032847;28;20038;-62
2022/04/27 03:53:25;;;;;;;15.32;8.18;;;;;;;;;;5032833;28;20400;-62
2022/04/27 03:55:51;;;;;;;13.57;7.75;;;;;;;;;;5032055;28;20037;-62
2022/04/27 03:58:18;;;;;;;19.10;8.00;;;;;;;;;;5032274;28;20045;-62
2022/04/27 04:00:44;;;;;;;13.80;7.65;;;;;;;;;;5032343;28;20116;-62
2022/04/27 04:03:11;;;;;;;13.32;8.35;;;;;;;;;;5031935;28;20048;-62
2022/04/27 04:05:38;;;;;;;9.45;7.35;;;;;;;;;;5032175;28;20049;-62
2022/04/27 04:08:04;;;;;;;15.70;8.27;;;;;;;;;;5032309;28;20041;-62
2022/04/27 04:10:30;;;;;;;16.33;8.40;;;;;;;;;;5031762;28;20041;-62
2022/04/27 04:12:56;;;;;;;13.13;8.02;;;;;;;;;;5032464;28;20068;-62
2022/04/27 04:15:22;;;;;;;14.77;7.97;;;;;;;;;;5032336;28;20033;-62
2022/04/27 04:17:48;;;;;;;13.07;7.97;;;;;;;;;;5031623;28;20038;-62
2022/04/27 04:20:17;;;;;;;11.77;7.63;;;;;;;;;;5032403;28;20041;-62
2022/04/27 04:22:43;;;;;;;13.60;7.32;;;;;;;;;;5032081;28;20087;-62
2022/04/27 04:30:40;;;;;;;14.95;7.50;;;;;;;;;;5032048;28;20053;-62
2022/04/27 04:33:06;;;;;;;14.75;8.07;;;;;;;;;;5031118;28;20049;-62
2022/04/27 04:35:32;;;;;;;10.18;6.60;;;;;;;;;;5030445;28;20132;-62
2022/04/27 04:37:58;;;;;;;13.80;7.68;;;;;;;;;;5031862;28;20159;-62
2022/04/27 04:40:24;;;;;;;13.65;7.60;;;;;;;;;;5030823;28;20114;-62
2022/04/27 04:42:50;;;;;;;10.65;7.38;;;;;;;;;;5031735;28;20124;-62
2022/04/27 04:45:16;;;;;;;21.60;7.68;;;;;;;;;;5031686;28;20045;-62
2022/04/27 04:47:42;;;;;;;12.27;7.68;;;;;;;;;;5030659;28;20045;-62
2022/04/27 04:50:09;;;;;;;12.88;7.68;;;;;;;;;;5031753;28;20044;-62
2022/04/27 04:52:36;;;;;;;16.40;8.23;;;;;;;;;;5031708;28;20046;-62
2022/04/27 04:55:02;;;;;;;11.30;6.90;;;;;;;;;;5031065;28;20383;-62
2022/04/27 04:57:28;;;;;;;13.35;7.53;;;;;;;;;;5031629;28;20038;-62
2022/04/27 04:59:54;;;;;;;13.13;7.03;;;;;;;;;;5031658;28;20383;-62
2022/04/27 05:02:20;;;;;;;12.65;7.32;;;;;;;;;;5031053;28;20040;-62
2022/04/27 05:04:46;;;;;;;10.07;7.35;;;;;;;;;;5031457;28;20115;-62
2022/04/27 05:07:12;;;;;;;9.05;6.80;;;;;;;;;;5031491;28;20049;-62
2022/04/27 05:09:38;;;;;;;13.35;6.68;;;;;;;;;;5030716;28;20048;-62
2022/04/27 05:12:04;;;;;;;10.45;7.13;;;;;;;;;;5030637;28;20080;-62
2022/04/27 05:14:31;;;;;;;11.45;7.35;;;;;;;;;;5031744;28;20823;-62
2022/04/27 05:16:57;;;;;;;8.55;6.40;;;;;;;;;;5030831;28;20065;-62
2022/04/27 05:19:23;;;;;;;11.85;7.05;;;;;;;;;;5031500;28;20042;-62
2022/04/27 05:21:52;;;;;;;10.57;7.10;;;;;;;;;;5031414;28;20609;-62
2022/04/27 05:24:18;;;;;;;11.45;7.90;;;;;;;;;;5030360;28;20041;-62
2022/04/27 05:26:44;;;;;;;9.23;6.10;;;;;;;;;;5031168;28;20038;-62
2022/04/27 05:31:55;;;;;;;9.23;5.70;;;;;;;;;;5030593;28;20052;-62
2022/04/27 05:34:21;;;;;;;9.80;6.40;;;;;;;;;;5031400;28;20571;-62
2022/04/27 05:36:48;;;;;;;11.10;6.45;;;;;;;;;;5031172;28;20116;-62
2022/04/27 05:39:14;;;;;;;8.88;5.85;;;;;;;;;;5030184;28;20084;-62
2022/04/27 05:41:41;;;;;;;11.45;5.82;;;;;;;;;;5031125;28;20034;-62
2022/04/27 05:44:09;;;;;;;11.25;6.10;;;;;;;;;;5031068;28;20121;-62
2022/04/27 05:46:44;;;;;;;12.10;6.03;;;;;;;;;;5030565;28;20104;-62
2022/04/27 05:49:12;;;;;;;11.13;5.72;;;;;;;;;;5031247;28;20037;-62
2022/04/27 05:51:38;;;;;;;10.55;6.60;;;;;;;;;;5031250;28;20073;-62
2022/04/27 05:54:04;;;;;;;11.57;6.70;;;;;;;;;;5030526;28;20040;-62
2022/04/27 05:56:30;;;;;;;11.75;7.05;;;;;;;;;;5031125;28;20049;-62
2022/04/27 05:58:56;;;;;;;11.57;6.15;;;;;;;;;;5031026;28;20069;-62
2022/04/27 06:01:23;;;;;;;10.88;6.43;;;;;;;;;;5030425;28;20396;-62
2022/04/27 06:03:49;;;;;;;11.93;6.95;;;;;;;;;;5031202;28;20373;-62
2022/04/27 06:06:15;;;;;;;11.35;7.07;;;;;;;;;;5030376;28;20053;-62
2022/04/27 06:08:41;;;;;;;12.60;6.45;;;;;;;;;;5030198;28;20045;-62
2022/04/27 06:11:07;;;;;;;13.25;6.40;;;;;;;;;;5030462;28;20038;-62
2022/04/27 06:13:33;;;;;;;8.75;5.90;;;;;;;;;;5030906;28;20499;-62
2022/04/27 06:15:59;;;;;;;11.73;7.13;;;;;;;;;;5028641;28;20179;-62
2022/04/27 06:18:25;;;;;;;11.73;6.47;;;;;;;;;;5030506;28;20048;-62
2022/04/27 06:20:52;;;;;;;12.38;7.40;;;;;;;;;;5030753;28;20042;-62
2022/04/27 06:23:18;;;;;;;9.90;6.75;;;;;;;;;;5032279;28;20041;-62
2022/04/27 06:25:49;;;;;;;12.43;6.55;;;;;;;;;;5034344;28;20052;-62
2022/04/27 06:28:16;;;;;;;12.32;5.60;;;;;;;;;;5034310;28;20072;-62
2022/04/27 06:30:42;;;;;;;6.75;5.15;;;;;;;;;;5033611;28;20057;-62
2022/04/27 06:33:08;;;;;;;10.32;5.40;;;;;;;;;;5033942;28;20038;-62
2022/04/27 06:35:34;;;;;;;11.32;5.47;;;;;;;;;;5034123;28;20037;-62
2022/04/27 06:38:00;;;;;;;8.93;5.43;;;;;;;;;;5033479;28;20044;-62
2022/04/27 06:40:27;;;;;;;8.35;5.45;;;;;;;;;;5034067;28;20453;-62
2022/04/27 06:42:53;;;;;;;9.82;5.70;;;;;;;;;;5033614;28;20048;-62
2022/04/27 06:45:19;;;;;;;9.73;5.53;;;;;;;;;;5033470;28;20041;-62
2022/04/27 06:47:45;;;;;;;8.57;5.70;;;;;;;;;;5033846;28;20526;-62
2022/04/27 06:50:16;;;;;;;8.60;5.22;;;;;;;;;;5033811;28;20065;-62
2022/04/27 06:52:43;;;;;;;10.95;5.28;;;;;;;;;;5031704;28;20060;-62
2022/04/27 06:55:10;;;;;;;6.88;4.72;;;;;;;;;;5034144;28;20044;-62
2022/04/27 06:57:37;;;;;;;5.60;3.58;;;;;;;;;;5033883;28;20041;-62
2022/04/27 07:00:03;;;;;;;8.35;4.10;;;;;;;;;;5033113;28;20053;-62
2022/04/27 07:02:29;;;;;;;8.48;4.30;;;;;;;;;;5032518;28;20128;-62
2022/04/27 07:05:00;;;;;;;6.93;3.88;;;;;;;;;;5032856;28;20057;-62
2022/04/27 07:07:27;;;;;;;6.53;3.55;;;;;;;;;;5032716;28;20038;-62
2022/04/27 07:09:53;;;;;;;7.13;4.20;;;;;;;;;;5033630;28;20069;-62
2022/04/27 07:12:19;;;;;;;7.90;4.75;;;;;;;;;;5032033;28;20397;-62
2022/04/27 07:14:46;;;;;;;10.45;4.00;;;;;;;;;;5033022;28;20033;-62
2022/04/27 07:17:12;;;;;;;10.35;4.55;;;;;;;;;;5033538;28;20084;-62
2022/04/27 07:19:39;;;;;;;8.55;4.70;;;;;;;;;;5033398;28;20416;-62
2022/04/27 07:22:06;;;;;;;11.73;4.57;;;;;;;;;;5033015;28;20045;-62
2022/04/27 07:24:32;;;;;;;8.13;4.00;;;;;;;;;;5033182;28;20050;-62
2022/04/27 07:26:58;;;;;;;6.65;4.55;;;;;;;;;;5032832;28;20464;-62
2022/04/27 07:29:24;;;;;;;5.75;3.70;;;;;;;;;;5033037;28;20072;-62
2022/04/27 07:31:50;;;;;;;8.95;3.70;;;;;;;;;;5032416;28;20496;-62
2022/04/27 07:34:17;;;;;;;5.85;3.90;;;;;;;;;;5030732;28;20038;-62
2022/04/27 07:36:43;;;;;;;7.70;3.53;;;;;;;;;;5030471;28;20041;-62
2022/04/27 07:39:09;;;;;;;5.90;3.65;;;;;;;;;;5027365;28;20171;-62
2022/04/27 07:41:35;;;;;;;5.18;1.73;;;;;;;;;;5032148;28;20080;-62
2022/04/27 07:44:02;;;;;;;4.10;1.92;;;;;;;;;;5030631;28;20084;-62
2022/04/27 07:46:28;;;;;;;4.15;1.83;;;;;;;;;;5031677;28;20171;-62
2022/04/27 07:48:54;;;;;;;6.10;1.65;;;;;;;;;;5031490;28;20116;-62
2022/04/27 07:51:21;;;;;;;3.83;1.80;;;;;;;;;;5032095;28;20046;-62
2022/04/27 07:53:48;;;;;;;4.38;2.00;;;;;;;;;;5011485;28;20041;-62
2022/04/27 07:56:14;;;;;;;2.42;1.75;;;;;;;;;;5015695;28;20060;-62
2022/04/27 07:58:40;;;;;;;3.25;1.63;;;;;;;;;;5025601;28;20129;-62
2022/04/27 08:01:06;;;;;;;4.47;1.70;;;;;;;;;;5029343;28;20069;-62
2022/04/27 08:03:32;;;;;;;2.55;1.42;;;;;;;;;;5025966;28;20041;-61
2022/04/27 08:06:01;;;;;;;5.13;1.65;;;;;;;;;;5030491;28;20053;-61
2022/04/27 08:08:28;;;;;;;5.10;1.88;;;;;;;;;;5030587;28;20124;-61
2022/04/27 08:10:54;;;;;;;5.20;2.15;;;;;;;;;;5032278;28;20038;-61
2022/04/27 08:13:20;;;;;;;6.10;2.20;;;;;;;;;;5032228;28;20041;-61
2022/04/27 08:15:46;;;;;;;3.60;1.77;;;;;;;;;;5030923;28;20124;-61
2022/04/27 08:18:12;;;;;;;3.30;1.70;;;;;;;;;;5030222;28;20103;-62
2022/04/27 08:23:32;;;;;;;6.68;1.83;;;;;;;;;;5030607;28;20045;-62
2022/04/27 08:25:59;;;;;;;6.13;1.88;;;;;;;;;;5030537;28;20128;-61
2022/04/27 08:28:27;;;;;;;7.53;2.42;;;;;;;;;;5029242;28;20049;-61
2022/04/27 08:30:53;;;;;;;5.25;2.00;;;;;;;;;;5027555;28;20095;-61
2022/04/27 08:33:20;;;;;;;6.05;2.47;;;;;;;;;;5024633;28;20503;-61
2022/04/27 08:35:46;;;;;;;4.25;1.40;;;;;;;;;;5030267;28;20383;-61
2022/04/27 08:38:13;;;;;;;2.78;1.40;;;;;;;;;;5028390;28;20065;-61
2022/04/27 08:40:44;;;;;;;6.65;1.67;;;;;;;;;;5028832;28;20377;-61
2022/04/27 08:43:11;;;;;;;5.80;1.97;;;;;;;;;;5025709;28;20029;-61
2022/04/27 08:45:38;;;;;;;3.38;1.70;;;;;;;;;;5028979;28;20125;-61
2022/04/27 08:48:05;;;;;;;2.88;1.58;;;;;;;;;;5028955;28;20124;-61
2022/04/27 08:50:31;;;;;;;7.90;1.90;;;;;;;;;;5030796;28;20037;-61
2022/04/27 08:52:57;;;;;;;6.45;2.38;;;;;;;;;;5030769;28;20033;-61
2022/04/27 08:55:23;;;;;;;4.20;1.63;;;;;;;;;;5031798;28;20403;-61
2022/04/27 08:57:49;;;;;;;6.57;1.70;;;;;;;;;;5031624;28;20116;-61
2022/04/27 09:00:17;;;;;;;4.55;1.88;;;;;;;;;;5031011;28;20424;-61
2022/04/27 09:02:43;;;;;;;6.47;2.22;;;;;;;;;;5031081;28;20053;-61
2022/04/27 09:05:13;;;;;;;7.57;2.40;;;;;;;;;;5031075;28;20140;-62
2022/04/27 09:07:39;;;;;;;4.55;1.88;;;;;;;;;;5030908;28;20148;-62
2022/04/27 09:10:07;;;;;;;4.45;1.70;;;;;;;;;;5031579;28;20607;-62
2022/04/27 09:12:34;;;;;;;7.50;1.85;;;;;;;;;;5031800;28;20490;-62
2022/04/27 09:15:04;;;;;;;7.80;1.92;;;;;;;;;;5030729;28;20073;-62
2022/04/27 09:23:00;;;;;;;2.80;1.65;;;;;;;;;;5031481;28;20121;-62
2022/04/27 09:25:32;;;;;;;3.72;1.70;;;;;;;;;;5031498;28;20099;-62
2022/04/27 09:28:01;;;;;;;6.93;2.30;;;;;;;;;;5030506;28;20048;-62
2022/04/27 09:30:27;;;;;;;4.47;1.85;;;;;;;;;;5031342;28;20037;-62
2022/04/27 09:32:53;;;;;;;5.88;2.00;;;;;;;;;;5031308;28;20060;-62
2022/04/27 09:35:32;;;;;;;4.80;1.90;;;;;;;;;;5030910;28;20042;-62
2022/04/27 09:38:19;;;;;;;4.03;1.80;;;;;;;;;;5031289;28;20462;-62
2022/04/27 09:40:49;;;;;;;3.17;1.63;;;;;;;;;;5031104;28;20041;-62
2022/04/27 09:43:15;;;;;;;5.07;1.80;;;;;;;;;;5045780;28;20261;-62
2022/04/27 09:45:45;;;;;;;7.30;2.28;;;;;;;;;;5031052;28;20038;-62
2022/04/27 09:48:18;;;;;;;5.05;1.90;;;;;;;;;;5031170;28;20045;-62
2022/04/27 09:50:51;;;;;;;6.05;2.30;;;;;;;;;;5030621;28;20519;-62
2022/04/27 09:53:20;;;;;;;8.85;2.28;;;;;;;;;;5030910;28;20034;-62
2022/04/27 09:55:51;;;;;;;3.85;2.03;;;;;;;;;;5031167;28;20044;-62
2022/04/27 09:58:19;;;;;;;6.35;1.80;;;;;;;;;;5032299;28;20053;-62
2022/04/27 10:00:45;;;;;;;4.78;1.92;;;;;;;;;;5033596;28;20146;-62
2022/04/27 10:03:14;;;;;;;7.45;2.20;;;;;;;;;;5034888;28;20065;-62
2022/04/27 10:05:40;;;;;;;2.83;1.90;;;;;;;;;;5033778;28;20062;-62
2022/04/27 10:08:07;;;;;;;4.40;1.90;;;;;;;;;;5034875;28;20049;-62
2022/04/27 10:10:33;;;;;;;6.55;2.03;;;;;;;;;;5034902;28;20048;-62
2022/04/27 10:13:02;;;;;;;3.95;1.98;;;;;;;;;;5034162;28;20038;-62
2022/04/27 10:15:28;;;;;;;2.25;1.60;;;;;;;;;;5034488;28;20042;-62
2022/04/27 10:17:55;;;;;;;4.10;1.67;;;;;;;;;;5034628;28;20491;-62
2022/04/27 10:20:39;;;;;;;6.30;2.20;;;;;;;;;;5033828;28;20049;-62
2022/04/27 10:23:21;;;;;;;6.85;2.35;;;;;;;;;;5034523;28;20041;-62
2022/04/27 10:26:06;;;;;;;4.22;2.05;;;;;;;;;;5034448;28;20107;-62
2022/04/27 10:28:34;;;;;;;7.00;1.92;;;;;;;;;;5032482;28;20057;-62
2022/04/27 10:31:03;;;;;;;5.63;2.33;;;;;;;;;;5034467;28;20033;-62
2022/04/27 10:33:39;;;;;;;4.38;2.10;;;;;;;;;;5034058;28;20051;-62
2022/04/27 10:36:24;;;;;;;7.80;1.90;;;;;;;;;;5033607;28;20077;-62
2022/04/27 10:39:08;;;;;;;6.47;2.25;;;;;;;;;;5034067;28;20407;-62
2022/04/27 10:41:35;;;;;;;6.97;1.98;;;;;;;;;;5034188;28;20076;-62
2022/04/27 10:44:01;;;;;;;5.35;2.30;;;;;;;;;;5033446;28;20072;-61
2022/04/27 10:46:53;;;;;;;9.95;2.30;;;;;;;;;;5033908;28;20384;-61
2022/04/27 10:49:22;;;;;;;4.30;2.08;;;;;;;;;;5030653;28;20089;-61
2022/04/27 10:52:04;;;;;;;4.53;2.00;;;;;;;;;;5033966;28;20082;-62
2022/04/27 10:54:31;;;;;;;5.82;1.80;;;;;;;;;;5033961;28;20526;-62
2022/04/27 10:57:19;;;;;;;5.03;2.15;;;;;;;;;;5033292;28;20106;-62
2022/04/27 10:59:48;;;;;;;8.80;4.75;;;;;;;;;;5033815;28;20460;-61
2022/04/27 11:02:33;;;;;;;6.13;2.40;;;;;;;;;;5033686;28;20068;-61
2022/04/27 11:04:59;;;;;;;6.95;2.35;;;;;;;;;;5032887;28;20080;-61
2022/04/27 11:07:38;;;;;;;4.30;2.08;;;;;;;;;;5033344;28;20088;-62
2022/04/27 11:10:09;;;;;;;12.98;2.00;;;;;;;;;;5032475;28;20048;-62
2022/04/27 11:12:39;;;;;;;6.43;2.42;;;;;;;;;;5031206;28;20397;-62
2022/04/27 11:15:10;;;;;;;5.18;2.13;;;;;;;;;;5033276;28;20132;-62
2022/04/27 11:17:37;;;;;;;6.17;2.20;;;;;;;;;;5032970;28;20135;-62
2022/04/27 11:20:03;;;;;;;9.02;2.35;;;;;;;;;;5032894;28;20039;-62
2022/04/27 11:22:39;;;;;;;5.43;2.17;;;;;;;;;;5033151;28;20111;-62
2022/04/27 11:25:08;;;;;;;4.53;2.20;;;;;;;;;;5033207;28;20056;-62
2022/04/27 11:27:34;;;;;;;6.47;2.20;;;;;;;;;;5047614;28;20041;-62
2022/04/27 11:30:02;;;;;;;8.48;2.50;;;;;;;;;;5033310;28;20049;-62
2022/04/27 11:32:28;;;;;;;6.63;2.20;;;;;;;;;;5033133;28;20116;-62
2022/04/27 11:34:54;;;;;;;5.40;2.45;;;;;;;;;;5032572;28;20484;-62
2022/04/27 11:37:21;;;;;;;4.55;2.38;;;;;;;;;;5033055;28;20037;-62
2022/04/27 11:39:50;;;;;;;4.78;2.20;;;;;;;;;;5033089;28;20045;-62
2022/04/27 11:42:16;;;;;;;5.88;1.92;;;;;;;;;;5032290;28;20072;-62
2022/04/27 11:44:43;;;;;;;12.48;2.67;;;;;;;;;;5033001;28;20421;-62
2022/04/27 11:47:28;;;;;;;5.05;2.72;;;;;;;;;;5032952;28;20576;-62
2022/04/27 11:50:05;;;;;;;5.75;2.38;;;;;;;;;;5032078;28;20041;-62
2022/04/27 11:52:31;;;;;;;3.88;2.25;;;;;;;;;;5032548;28;20087;-62
2022/04/27 11:55:01;;;;;;;8.60;2.65;;;;;;;;;;5032946;28;20041;-62
2022/04/27 11:57:28;;;;;;;7.32;2.55;;;;;;;;;;5031834;28;20059;-62
2022/04/27 11:59:57;;;;;;;8.27;2.85;;;;;;;;;;5032706;28;20486;-62
2022/04/27 12:02:25;;;;;;;5.78;2.50;;;;;;;;;;5032699;28;20053;-62
2022/04/27 12:04:51;;;;;;;8.30;3.10;;;;;;;;;;5031542;28;20068;-62
2022/04/27 12:07:20;;;;;;;10.00;2.95;;;;;;;;;;5032161;28;20102;-62
2022/04/27 12:10:03;;;;;;;10.35;3.25;;;;;;;;;;5032576;28;20436;-62
2022/04/27 12:12:32;;;;;;;7.22;3.30;;;;;;;;;;5031942;28;20037;-62
2022/04/27 12:15:04;;;;;;;8.35;3.35;;;;;;;;;;5032524;28;20041;-62
2022/04/27 12:17:46;;;;;;;4.18;3.15;;;;;;;;;;5032264;28;20049;-62
2022/04/27 12:20:36;;;;;;;5.90;2.80;;;;;;;;;;5031578;28;20129;-62
2022/04/27 12:23:05;;;;;;;6.28;3.20;;;;;;;;;;5031156;28;20064;-62
2022/04/27 12:25:32;;;;;;;5.72;2.72;;;;;;;;;;5031863;28;20107;-62
2022/04/27 12:27:59;;;;;;;5.97;2.45;;;;;;;;;;5031921;28;20081;-62
2022/04/27 12:30:25;;;;;;;9.63;2.85;;;;;;;;;;5031936;28;20049;-62
2022/04/27 12:32:51;;;;;;;6.65;2.60;;;;;;;;;;5031726;28;20500;-62
2022/04/27 12:38:09;;;;;;;5.55;2.97;;;;;;;;;;5031954;28;20049;-62
2022/04/27 12:40:36;;;;;;;8.57;2.80;;;;;;;;;;5031263;28;20085;-62
2022/04/27 12:43:02;;;;;;;6.78;2.40;;;;;;;;;;5031838;28;20112;-62
2022/04/27 12:45:29;;;;;;;10.02;2.58;;;;;;;;;;5031987;28;20091;-62
2022/04/27 12:47:55;;;;;;;6.35;2.55;;;;;;;;;;5031143;28;20191;-62
2022/04/27 12:50:21;;;;;;;7.38;2.40;;;;;;;;;;5031610;28;20037;-62
2022/04/27 12:52:47;;;;;;;4.65;2.30;;;;;;;;;;5031816;28;20514;-62
2022/04/27 12:55:14;;;;;;;7.13;2.58;;;;;;;;;;5030906;28;20049;-62
2022/04/27 12:57:47;;;;;;;4.85;2.67;;;;;;;;;;5031591;28;20045;-62
2022/04/27 13:00:14;;;;;;;6.50;2.83;;;;;;;;;;5031626;28;20124;-62
2022/04/27 13:02:40;;;;;;;10.50;2.88;;;;;;;;;;5030966;28;20041;-62
2022/04/27 13:05:06;;;;;;;6.45;2.60;;;;;;;;;;5031458;28;20145;-62
2022/04/27 13:07:32;;;;;;;5.22;2.80;;;;;;;;;;5031207;28;20049;-62
2022/04/27 13:12:43;;;;;;;7.25;2.47;;;;;;;;;;5031492;28;20372;-62
2022/04/27 13:15:10;;;;;;;5.95;2.22;;;;;;;;;;5031356;28;20052;-62
2022/04/27 13:17:37;;;;;;;6.28;2.42;;;;;;;;;;5030919;28;20451;-61
2022/04/27 13:20:04;;;;;;;5.30;2.30;;;;;;;;;;5031564;28;20060;-62
2022/04/27 13:22:30;;;;;;;5.65;2.25;;;;;;;;;;5031420;28;20042;-62
2022/04/27 13:24:57;;;;;;;11.75;2.90;;;;;;;;;;5029761;28;20045;-62
2022/04/27 13:27:24;;;;;;;6.35;2.60;;;;;;;;;;5029576;28;20396;-62
2022/04/27 13:29:51;;;;;;;7.45;2.28;;;;;;;;;;5031409;28;20042;-62
2022/04/27 13:32:17;;;;;;;7.40;2.63;;;;;;;;;;5031369;28;20044;-62
2022/04/27 13:34:43;;;;;;;8.25;2.40;;;;;;;;;;5035464;28;20468;-62
2022/04/27 13:37:09;;;;;;;4.70;2.30;;;;;;;;;;5035293;28;20067;-62
2022/04/27 13:39:35;;;;;;;8.63;2.63;;;;;;;;;;5034725;28;20049;-62
2022/04/27 13:42:02;;;;;;;8.98;2.45;;;;;;;;;;5035127;28;20041;-62
2022/04/27 13:44:29;;;;;;;6.40;2.13;;;;;;;;;;5035385;28;20080;-62
2022/04/27 13:46:55;;;;;;;9.68;2.42;;;;;;;;;;5033189;28;20053;-62
2022/04/27 13:49:21;;;;;;;7.47;2.25;;;;;;;;;;5034861;28;20068;-62
2022/04/27 13:51:51;;;;;;;8.18;2.30;;;;;;;;;;5035144;28;20037;-62
2022/04/27 13:54:17;;;;;;;6.10;2.22;;;;;;;;;;5034814;28;20045;-62
2022/04/27 13:56:43;;;;;;;11.73;2.50;;;;;;;;;;5034510;28;20041;-62
2022/04/27 13:59:12;;;;;;;7.07;2.00;;;;;;;;;;5034500;28;20396;-62
2022/04/27 14:01:39;;;;;;;9.70;2.30;;;;;;;;;;5035121;28;20483;-62
2022/04/27 14:04:05;;;;;;;8.13;2.53;;;;;;;;;;5034310;28;20034;-62
2022/04/27 14:06:31;;;;;;;9.25;2.40;;;;;;;;;;5033134;28;20060;-62
2022/04/27 14:08:57;;;;;;;5.90;2.50;;;;;;;;;;5034539;28;20064;-62
2022/04/27 14:14:08;;;;;;;7.80;2.58;;;;;;;;;;5034730;28;20095;-62
2022/04/27 14:19:19;;;;;;;7.38;2.47;;;;;;;;;;5032821;28;20041;-62
2022/04/27 14:21:45;;;;;;;8.85;2.40;;;;;;;;;;5034204;28;20045;-62
2022/04/27 14:24:11;;;;;;;8.70;2.25;;;;;;;;;;5033406;28;20635;-62
2022/04/27 14:26:38;;;;;;;8.80;2.10;;;;;;;;;;5032817;28;20048;-62
2022/04/27 14:29:04;;;;;;;8.20;2.47;;;;;;;;;;5033810;28;20099;-62
2022/04/27 14:31:30;;;;;;;6.60;2.47;;;;;;;;;;5033768;28;20047;-62
2022/04/27 14:33:57;;;;;;;8.90;2.65;;;;;;;;;;5034287;28;20449;-62
2022/04/27 14:36:24;;;;;;;9.25;2.63;;;;;;;;;;5032964;28;20045;-62
2022/04/27 14:38:50;;;;;;;11.90;2.70;;;;;;;;;;5033596;28;20037;-62
2022/04/27 14:41:18;;;;;;;12.18;2.88;;;;;;;;;;5034283;28;20037;-62
2022/04/27 14:43:45;;;;;;;9.48;2.75;;;;;;;;;;5033749;28;20041;-62
2022/04/27 14:46:11;;;;;;;9.05;2.58;;;;;;;;;;5033447;28;20583;-62
2022/04/27 14:48:40;;;;;;;10.68;2.75;;;;;;;;;;5033884;28;20099;-62
2022/04/27 14:51:07;;;;;;;10.90;3.05;;;;;;;;;;5033732;28;20077;-62
2022/04/27 14:53:36;;;;;;;8.75;2.90;;;;;;;;;;5033691;28;20567;-62
2022/04/27 14:56:03;;;;;;;8.18;2.47;;;;;;;;;;5033874;28;20099;-62
2022/04/27 14:58:29;;;;;;;8.07;2.47;;;;;;;;;;5033324;28;20080;-62
2022/04/27 15:00:59;;;;;;;8.57;2.70;;;;;;;;;;5033558;28;20103;-62
2022/04/27 15:03:28;;;;;;;10.38;2.58;;;;;;;;;;5033760;28;20164;-62
2022/04/27 15:05:54;;;;;;;8.68;3.70;;;;;;;;;;5033131;28;20057;-62
2022/04/27 15:08:20;;;;;;;9.98;3.05;;;;;;;;;;5033062;28;20038;-62
2022/04/27 15:10:46;;;;;;;6.72;2.58;;;;;;;;;;5033320;28;20077;-62
2022/04/27 15:13:16;;;;;;;9.98;2.60;;;;;;;;;;5033333;28;20044;-62